Carson City, NV

10:57 PM PST on February 12, 2016 (GMT -0800)
Carson

Weather History for KCXP - April, 2013

Change the Weather History Date:

Tuesday, April 9, 2013

  Actual Average Record
Temperature  
Mean Temperature 44 °F -  
Max Temperature 55 °F 63 °F 73 °F (2014)
Min Temperature 32 °F 30 °F 24 °F (2015)
Degree Days  
Heating Degree Days 22    
Moisture  
Dew Point 16 °F    
Average Humidity 36    
Maximum Humidity 60    
Minimum Humidity 16    
Precipitation  
Precipitation 0.00 in - - ()
Sea Level Pressure  
Sea Level Pressure 30.15 in    
Wind  
Wind Speed 10 mph (North)    
Max Wind Speed 20 mph    
Max Gust Speed 30 mph    
Visibility 10 miles    
Events      
Averages and records for this station are not official NWS values.
T = Trace of Precipitation, MM = Missing Value Source: NWS Daily Summary

Daily Weather History Graph

Daily Weather History Graph

Search for Another Location

Airport or City:

Trip Planner

Search our weather history database for the weather conditions in past years. The results will help you decide how hot, cold, wet, or windy it might be!

Date:

Astronomy

Apr. 09, 2013 Rise Set
Actual Time 6:30 AM PDT 7:30 PM PDT
Civil Twilight 6:03 AM PDT 7:58 PM PDT
Nautical Twilight 5:30 AM PDT 8:30 PM PDT
Astronomical Twilight 4:56 AM PDT 9:04 PM PDT
Moon 5:55 AM PDT (4/9) 7:11 PM PDT (4/9)
Length of Visible Light 13h 55m
Length of Day
13h 00m
Waning Crescent, 0% of the Moon is Illuminated
Apr 9
Waning Crescent
Apr 10
New
Apr 18
First Quarter
Apr 25
Full
May 2
Last Quarter

Hourly Weather History & Observations

Time (PDT) Temp. Windchill Dew Point Humidity Pressure Visibility Wind Dir Wind Speed Gust Speed Precip Events Conditions
12:15 AM 37.4 °F 28.5 °F 17.6 °F 45% 30.04 in 10.0 mi North 15.0 mph 24.2 mph N/A   Clear
12:35 AM 37.4 °F 29.3 °F 17.6 °F 45% 30.06 in 10.0 mi North 12.7 mph 23.0 mph N/A   Clear
12:55 AM 35.6 °F 26.6 °F 19.4 °F 52% 30.05 in 10.0 mi North 13.8 mph 21.9 mph N/A   Clear
1:15 AM 35.6 °F 29.9 °F 17.6 °F 48% 30.07 in 10.0 mi NNE 6.9 mph 18.4 mph N/A   Clear
1:35 AM 35.6 °F 27.5 °F 17.6 °F 48% 30.07 in 10.0 mi East 11.5 mph 18.4 mph N/A   Clear
1:55 AM 35.6 °F 32.8 °F 17.6 °F 48% 30.07 in 10.0 mi North 3.5 mph - N/A   Partly Cloudy
2:15 AM 35.6 °F 32.8 °F 17.6 °F 48% 30.07 in 10.0 mi North 3.5 mph - N/A   Mostly Cloudy
2:35 AM 35.6 °F 32.8 °F 17.6 °F 48% 30.07 in 10.0 mi ENE 3.5 mph - N/A   Overcast
2:55 AM 35.6 °F 32.8 °F 19.4 °F 52% 30.07 in 10.0 mi North 3.5 mph - N/A   Overcast
3:15 AM 35.6 °F 29.9 °F 19.4 °F 52% 30.07 in 10.0 mi NE 6.9 mph - N/A   Overcast
3:35 AM 35.6 °F 29.2 °F 19.4 °F 52% 30.07 in 10.0 mi NE 8.1 mph - N/A   Overcast
3:55 AM 35.6 °F 28.0 °F 19.4 °F 52% 30.07 in 10.0 mi NNE 10.4 mph - N/A   Mostly Cloudy
4:15 AM 35.6 °F 27.1 °F 19.4 °F 52% 30.07 in 10.0 mi NNW 12.7 mph - N/A   Scattered Clouds
4:35 AM 35.6 °F 26.2 °F 19.4 °F 52% 30.07 in 10.0 mi North 15.0 mph 19.6 mph N/A   Clear
4:55 AM 35.6 °F - 19.4 °F 52% 30.08 in 10.0 mi Calm Calm - N/A   Clear
5:15 AM 35.6 °F 31.7 °F 17.6 °F 48% 30.08 in 10.0 mi NNE 4.6 mph 16.1 mph N/A   Clear
5:35 AM 33.8 °F - 19.4 °F 56% 30.10 in 10.0 mi Calm Calm - N/A   Partly Cloudy
5:55 AM 33.8 °F - 19.4 °F 56% 30.10 in 10.0 mi Calm Calm - N/A   Mostly Cloudy
6:15 AM 35.6 °F 29.9 °F 19.4 °F 52% 30.11 in 10.0 mi NW 6.9 mph - N/A   Overcast
6:35 AM 32.0 °F 24.2 °F 19.4 °F 60% 30.12 in 10.0 mi NNW 9.2 mph - N/A   Scattered Clouds
6:55 AM 33.8 °F 25.8 °F 19.4 °F 56% 30.13 in 10.0 mi NNW 10.4 mph 16.1 mph N/A   Clear
7:15 AM 35.6 °F 28.0 °F 19.4 °F 52% 30.14 in 10.0 mi NNW 10.4 mph - N/A   Clear
7:35 AM 35.6 °F 27.5 °F 19.4 °F 52% 30.14 in 10.0 mi North 11.5 mph - N/A   Clear
7:55 AM 35.6 °F 27.1 °F 19.4 °F 52% 30.15 in 10.0 mi North 12.7 mph 18.4 mph N/A   Clear
8:15 AM 37.4 °F 28.5 °F 19.4 °F 48% 30.16 in 10.0 mi North 15.0 mph - N/A   Clear
8:35 AM 37.4 °F 28.9 °F 19.4 °F 48% 30.16 in 10.0 mi NNW 13.8 mph 19.6 mph N/A   Clear
8:55 AM 37.4 °F 28.9 °F 19.4 °F 48% 30.17 in 10.0 mi NNW 13.8 mph - N/A   Clear
9:15 AM 39.2 °F 31.2 °F 19.4 °F 45% 30.17 in 10.0 mi NNW 13.8 mph 18.4 mph N/A   Scattered Clouds
9:35 AM 39.2 °F 30.8 °F 19.4 °F 45% 30.17 in 10.0 mi NNW 15.0 mph - N/A   Mostly Cloudy
9:55 AM 41.0 °F 33.9 °F 19.4 °F 42% 30.18 in 10.0 mi NNW 12.7 mph 17.3 mph N/A   Mostly Cloudy
10:15 AM 41.0 °F 34.7 °F 19.4 °F 42% 30.18 in 10.0 mi NNW 10.4 mph 17.3 mph N/A   Mostly Cloudy
10:35 AM 42.8 °F 39.3 °F 19.4 °F 39% 30.18 in 10.0 mi NE 5.8 mph - N/A   Mostly Cloudy
10:55 AM 44.6 °F 41.4 °F 19.4 °F 37% 30.18 in 10.0 mi East 5.8 mph - N/A   Scattered Clouds
11:15 AM 44.6 °F 40.2 °F 19.4 °F 37% 30.18 in 10.0 mi East 8.1 mph - N/A   Clear
11:35 AM 44.6 °F - 17.6 °F 34% 30.17 in 10.0 mi Calm Calm - N/A   Clear
11:55 AM 46.4 °F - 17.6 °F 32% 30.17 in 10.0 mi Calm Calm - N/A   Clear
12:15 PM 48.2 °F - 17.6 °F 30% 30.17 in 10.0 mi SSW 3.5 mph - N/A   Clear
12:35 PM 51.8 °F - 15.8 °F 24% 30.16 in 10.0 mi East 5.8 mph 17.3 mph N/A   Clear
12:55 PM 53.6 °F - 14.0 °F 21% 30.16 in 10.0 mi North 11.5 mph 20.7 mph N/A   Clear
1:15 PM 53.6 °F - 12.2 °F 19% 30.15 in 10.0 mi NNE 17.3 mph 24.2 mph N/A   Clear
1:35 PM 53.6 °F - 10.4 °F 18% 30.15 in 10.0 mi North 13.8 mph 21.9 mph N/A   Clear
1:55 PM 53.6 °F - 10.4 °F 18% 30.14 in 10.0 mi NNE 13.8 mph 20.7 mph N/A   Clear
2:15 PM 53.6 °F - 15.8 °F 22% 30.14 in 10.0 mi North 12.7 mph 19.6 mph N/A   Clear
2:35 PM 53.6 °F - 14.0 °F 21% 30.14 in 10.0 mi North 10.4 mph 21.9 mph N/A   Clear
2:55 PM 55.4 °F - 14.0 °F 20% 30.14 in 10.0 mi NNW 18.4 mph 25.3 mph N/A   Clear
3:15 PM 55.4 °F - 14.0 °F 20% 30.13 in 10.0 mi NNW 16.1 mph 29.9 mph N/A   Clear
3:35 PM 55.4 °F - 14.0 °F 20% 30.14 in 10.0 mi North 15.0 mph 23.0 mph N/A   Clear
3:55 PM 55.4 °F - 12.2 °F 18% 30.14 in 10.0 mi NNW 18.4 mph 25.3 mph N/A   Clear
4:15 PM 53.6 °F - 10.4 °F 18% 30.14 in 10.0 mi NNW 19.6 mph 23.0 mph N/A   Clear
4:35 PM 55.4 °F - 10.4 °F 17% 30.15 in 10.0 mi North 18.4 mph 24.2 mph N/A   Clear
4:55 PM 53.6 °F - 12.2 °F 19% 30.15 in 10.0 mi NNW 18.4 mph 25.3 mph N/A   Clear
5:15 PM 53.6 °F - 10.4 °F 18% 30.16 in 10.0 mi NNW 15.0 mph 21.9 mph N/A   Clear
5:35 PM 53.6 °F - 10.4 °F 18% 30.16 in 10.0 mi NNW 12.7 mph 23.0 mph N/A   Clear
5:55 PM 53.6 °F - 8.6 °F 16% 30.17 in 10.0 mi North 16.1 mph - N/A   Clear
6:15 PM 53.6 °F - 12.2 °F 19% 30.18 in 10.0 mi NNE 10.4 mph - N/A   Clear
6:35 PM 53.6 °F - 10.4 °F 18% 30.17 in 10.0 mi NE 15.0 mph 20.7 mph N/A   Clear
6:55 PM 51.8 °F - 10.4 °F 19% 30.18 in 10.0 mi North 12.7 mph 16.1 mph N/A   Clear
7:15 PM 50.0 °F - 8.6 °F 19% 30.18 in 10.0 mi North 16.1 mph 25.3 mph N/A   Clear
7:35 PM 50.0 °F - 10.4 °F 20% 30.18 in 10.0 mi North 16.1 mph 20.7 mph N/A   Clear
7:55 PM 50.0 °F - 12.2 °F 22% 30.19 in 10.0 mi North 17.3 mph 23.0 mph N/A   Clear
8:15 PM 50.0 °F - 14.0 °F 24% 30.20 in 10.0 mi North 11.5 mph 18.4 mph N/A   Clear
8:35 PM 48.2 °F - 14.0 °F 25% 30.21 in 10.0 mi NNE 8.1 mph - N/A   Clear
8:55 PM 48.2 °F - 15.8 °F 27% 30.23 in 10.0 mi Calm Calm - N/A   Clear
9:15 PM 46.4 °F - 15.8 °F 29% 30.23 in 10.0 mi Calm Calm - N/A   Clear
9:35 PM 46.4 °F 42.9 °F 15.8 °F 29% 30.24 in 10.0 mi East 6.9 mph - N/A   Clear
9:55 PM 46.4 °F - 15.8 °F 29% 30.25 in 10.0 mi Calm Calm - N/A   Clear
10:15 PM 46.4 °F - 15.8 °F 29% 30.25 in 10.0 mi Calm Calm - N/A   Clear
10:35 PM 44.6 °F - 15.8 °F 31% 30.26 in 10.0 mi Calm Calm - N/A   Clear
10:55 PM 41.0 °F 38.0 °F 17.6 °F 39% 30.26 in 10.0 mi West 4.6 mph - N/A   Clear
11:15 PM 44.6 °F 42.2 °F 17.6 °F 34% 30.27 in 10.0 mi NNE 4.6 mph - N/A   Clear
11:35 PM 41.0 °F 39.0 °F 17.6 °F 39% 30.27 in 10.0 mi NW 3.5 mph - N/A   Clear
11:55 PM 41.0 °F 37.1 °F 17.6 °F 39% 30.27 in 10.0 mi South 5.8 mph - N/A   Clear